Time;durP1;ratioP1;P1;durP2;ratioP2;P2;SDS_P1;SDS_P2;PMS_P1;PMS_P2;Temp;Humidity;BMP_temperature;BMP_pressure;BME280_temperature;BME280_humidity;BME280_pressure;Samples;Min_cycle;Max_cycle;Signal;HPM_P1;HPM_P2
2023/07/04 00:01:04;;;;;;;17.93;6.37;;;;;;;17.43;54.33;99801.00;4205645;28;22434;-69
2023/07/04 00:03:32;;;;;;;24.57;7.20;;;;;;;17.49;54.27;99806.69;4224000;28;20229;-69
2023/07/04 00:05:58;;;;;;;17.60;6.27;;;;;;;17.65;54.20;99802.72;4203897;28;20741;-71
2023/07/04 00:08:26;;;;;;;22.13;6.20;;;;;;;17.54;54.55;99815.13;4212118;28;20420;-71
2023/07/04 00:10:56;;;;;;;20.70;6.93;;;;;;;17.63;54.25;99816.63;4196851;28;20310;-70
2023/07/04 00:13:24;;;;;;;22.23;5.97;;;;;;;17.66;54.27;99818.09;4215386;28;21864;-69
2023/07/04 00:15:52;;;;;;;20.67;6.00;;;;;;;17.57;54.58;99818.28;4208940;28;20297;-70
2023/07/04 00:18:23;;;;;;;15.97;6.03;;;;;;;17.62;54.13;99816.81;4193764;28;20262;-71
2023/07/04 00:20:55;;;;;;;23.00;6.37;;;;;;;17.55;54.23;99827.75;4204387;28;20306;-69
2023/07/04 00:23:23;;;;;;;19.83;6.70;;;;;;;17.69;53.61;99826.72;4210407;28;20232;-69
2023/07/04 00:25:53;;;;;;;23.37;7.17;;;;;;;17.63;53.75;99829.44;4202252;28;21063;-72
2023/07/04 00:28:21;;;;;;;21.90;6.80;;;;;;;17.55;54.23;99827.75;4208289;28;20228;-71
2023/07/04 00:30:51;;;;;;;30.60;7.73;;;;;;;17.51;54.30;99824.59;4212835;28;20236;-70
2023/07/04 00:33:24;;;;;;;26.10;7.07;;;;;;;17.53;54.01;99829.84;4216336;28;20227;-70
2023/07/04 00:36:03;;;;;;;17.10;6.17;;;;;;;17.69;53.62;99832.19;4201702;28;20232;-68
2023/07/04 00:38:33;;;;;;;23.70;6.53;;;;;;;17.77;53.52;99831.13;4193890;28;21955;-74
2023/07/04 00:41:13;;;;;;;27.73;7.50;;;;;;;17.76;53.62;99837.66;4195560;28;20227;-70
2023/07/04 00:44:10;;;;;;;22.70;7.23;;;;;;;17.73;53.66;99833.47;4218012;28;20241;-72
2023/07/04 00:46:43;;;;;;;18.47;6.50;;;;;;;17.80;53.45;99828.00;4212698;28;21608;-70
2023/07/04 00:49:18;;;;;;;19.13;7.43;;;;;;;17.75;53.30;99835.97;4201623;28;20646;-70
2023/07/04 00:51:50;;;;;;;22.33;7.37;;;;;;;17.69;53.66;99832.19;4198301;28;21300;-71
2023/07/04 00:54:20;;;;;;;21.20;6.77;;;;;;;17.66;54.02;99826.31;4207260;28;20232;-70
2023/07/04 00:56:47;;;;;;;17.50;6.27;;;;;;;17.79;54.09;99841.91;4210006;28;20232;-69
2023/07/04 00:59:13;;;;;;;17.03;7.57;;;;;;;17.95;53.74;99824.19;4217999;28;21200;-70
2023/07/04 01:01:42;;;;;;;20.03;7.23;;;;;;;17.79;54.78;99829.03;4209587;28;20669;-72
2023/07/04 01:04:09;;;;;;;18.57;6.70;;;;;;;17.63;55.58;99832.19;4209830;28;20243;-70
2023/07/04 01:06:45;;;;;;;22.70;7.13;;;;;;;17.58;55.77;99832.81;4203453;28;22261;-69
2023/07/04 01:09:12;;;;;;;23.03;6.67;;;;;;;17.60;55.32;99832.63;4205293;28;20928;-70
2023/07/04 01:11:44;;;;;;;18.73;6.93;;;;;;;17.54;55.56;99837.03;4198527;28;21106;-71
2023/07/04 01:14:25;;;;;;;21.53;7.03;;;;;;;17.58;55.50;99825.47;4178136;28;21221;-71
2023/07/04 01:16:53;;;;;;;21.93;6.93;;;;;;;17.65;54.68;99833.66;4214107;28;20239;-71
2023/07/04 01:19:32;;;;;;;16.07;6.80;;;;;;;17.66;54.58;99829.03;4211606;28;20299;-70
2023/07/04 01:22:15;;;;;;;21.03;6.63;;;;;;;17.71;54.17;99827.34;4196274;28;21273;-72
2023/07/04 01:25:05;;;;;;;22.10;7.13;;;;;;;17.51;55.52;99832.81;4208088;28;20237;-71
2023/07/04 01:27:32;;;;;;;19.37;6.60;;;;;;;17.68;54.65;99830.50;4211050;28;22422;-71
2023/07/04 01:30:04;;;;;;;20.70;7.07;;;;;;;17.61;56.06;99843.34;4220481;28;20237;-70
2023/07/04 01:32:40;;;;;;;18.60;6.73;;;;;;;17.71;55.62;99838.28;4216932;28;20845;-70
2023/07/04 01:35:07;;;;;;;18.87;6.87;;;;;;;17.63;56.00;99830.31;4204138;28;20302;-69
2023/07/04 01:37:34;;;;;;;19.80;6.60;;;;;;;17.57;55.20;99834.72;4197005;28;20361;-72
2023/07/04 01:40:00;;;;;;;21.33;7.63;;;;;;;17.64;54.79;99842.09;4207912;28;20855;-68
2023/07/04 01:42:33;;;;;;;21.10;6.40;;;;;;;17.71;54.60;99832.81;4194599;28;20240;-69
2023/07/04 01:45:01;;;;;;;18.13;6.73;;;;;;;17.74;54.76;99842.53;4196425;28;20240;-70
2023/07/04 01:47:28;;;;;;;20.67;7.20;;;;;;;17.63;55.08;99835.78;4207710;28;20793;-69
2023/07/04 01:49:55;;;;;;;22.80;7.17;;;;;;;17.66;55.15;99849.03;4213900;28;25589;-71
2023/07/04 01:52:23;;;;;;;23.50;6.93;;;;;;;17.77;54.83;99852.22;4196203;28;20236;-70
2023/07/04 01:54:49;;;;;;;23.40;7.37;;;;;;;17.73;54.77;99843.56;4194518;28;20302;-68
2023/07/04 01:57:16;;;;;;;23.40;6.70;;;;;;;17.57;55.56;99850.28;4234458;28;20856;-72
2023/07/04 01:59:43;;;;;;;19.27;6.77;;;;;;;17.72;55.18;99858.31;4217764;28;20239;-71
2023/07/04 02:02:09;;;;;;;17.17;6.27;;;;;;;17.65;55.64;99854.72;4230238;28;20228;-70
2023/07/04 02:04:36;;;;;;;18.17;6.63;;;;;;;17.86;54.27;99845.47;4231890;28;20251;-70
2023/07/04 02:07:02;;;;;;;15.50;6.73;;;;;;;17.72;55.30;99847.34;4202777;28;21002;-72
2023/07/04 02:09:29;;;;;;;18.13;7.23;;;;;;;17.64;55.41;99842.91;4215976;28;20744;-73
2023/07/04 02:11:56;;;;;;;22.07;7.57;;;;;;;17.76;54.92;99853.25;4209797;28;21121;-71
2023/07/04 02:14:23;;;;;;;20.40;6.93;;;;;;;17.73;54.77;99847.16;4205754;28;20615;-72
2023/07/04 02:16:51;;;;;;;18.87;6.60;;;;;;;17.78;54.19;99851.16;4212730;28;22040;-71
2023/07/04 02:19:18;;;;;;;23.23;7.33;;;;;;;17.78;54.17;99845.69;4210466;28;20236;-70
2023/07/04 02:21:45;;;;;;;18.90;7.33;;;;;;;17.79;54.09;99848.22;4217020;28;20231;-71
2023/07/04 02:24:12;;;;;;;21.17;7.20;;;;;;;18.03;53.14;99838.53;4217644;28;20257;-75
2023/07/04 02:26:39;;;;;;;19.07;6.57;;;;;;;17.79;53.85;99844.63;4201082;28;20225;-71
2023/07/04 02:29:05;;;;;;;29.37;7.63;;;;;;;17.74;54.63;99837.88;4223335;28;22375;-75
2023/07/04 02:31:32;;;;;;;19.80;6.83;;;;;;;17.79;53.46;99837.25;4211975;28;20251;-71
2023/07/04 02:33:59;;;;;;;19.37;7.00;;;;;;;17.80;53.94;99836.22;4203028;28;22385;-71
2023/07/04 02:36:25;;;;;;;24.00;6.87;;;;;;;17.88;53.34;99841.47;4202988;28;20240;-72
2023/07/04 02:38:52;;;;;;;16.07;6.30;;;;;;;18.00;52.51;99835.38;4219737;28;20313;-72
2023/07/04 02:41:18;;;;;;;19.77;7.23;;;;;;;17.89;52.86;99845.91;4202053;28;22255;-71
2023/07/04 02:43:46;;;;;;;31.30;7.13;;;;;;;18.01;52.67;99837.06;4212586;28;21396;-71
2023/07/04 02:46:13;;;;;;;17.77;6.40;;;;;;;17.78;53.90;99849.25;4205788;28;20239;-73
2023/07/04 02:48:40;;;;;;;21.97;7.20;;;;;;;17.78;53.43;99845.69;4214292;28;20627;-70
2023/07/04 02:51:06;;;;;;;17.63;6.63;;;;;;;17.84;53.25;99837.47;4221382;28;20228;-71
2023/07/04 02:53:33;;;;;;;22.27;6.80;;;;;;;17.80;52.99;99840.81;4261340;28;20371;-73
2023/07/04 02:56:00;;;;;;;19.30;7.30;;;;;;;17.69;53.93;99845.88;4237360;28;20984;-72
2023/07/04 02:58:27;;;;;;;24.73;6.80;;;;;;;17.64;54.68;99853.03;4270637;28;21643;-73
2023/07/04 03:00:53;;;;;;;24.43;7.53;;;;;;;17.71;54.13;99843.75;4223410;28;21163;-72
2023/07/04 03:03:22;;;;;;;17.33;6.87;;;;;;;17.71;54.32;99851.97;4245940;28;20241;-71
2023/07/04 03:05:49;;;;;;;19.03;7.30;;;;;;;17.82;53.59;99849.69;4239628;28;20443;-72
2023/07/04 03:08:16;;;;;;;23.37;6.93;;;;;;;17.81;53.81;99846.09;4299520;28;20260;-71
2023/07/04 03:10:46;;;;;;;27.93;7.47;;;;;;;17.88;53.82;99854.31;4254973;28;20227;-70
2023/07/04 03:13:13;;;;;;;23.33;7.40;;;;;;;17.98;53.37;99837.50;4290653;28;21303;-70
2023/07/04 03:15:40;;;;;;;19.43;6.90;;;;;;;17.99;53.21;99845.50;4279099;28;20238;-72
2023/07/04 03:18:07;;;;;;;19.63;6.90;;;;;;;18.10;52.84;99857.72;4245357;28;21983;-71
2023/07/04 03:20:34;;;;;;;19.70;6.57;;;;;;;18.16;52.53;99853.31;4243554;28;21147;-73
2023/07/04 03:23:01;;;;;;;20.47;7.20;;;;;;;18.15;52.74;99849.72;4248787;28;20676;-70
2023/07/04 03:25:28;;;;;;;24.50;7.53;;;;;;;18.01;53.97;99862.56;4258556;28;20228;-69
2023/07/04 03:27:55;;;;;;;21.40;7.50;;;;;;;18.10;53.15;99856.88;4234110;28;21796;-70
2023/07/04 03:30:22;;;;;;;20.40;6.93;;;;;;;18.07;55.18;99851.84;4232550;28;21469;-70
2023/07/04 03:32:48;;;;;;;19.13;7.07;;;;;;;18.18;52.97;99854.78;4222811;28;20255;-72
2023/07/04 03:35:15;;;;;;;20.57;7.60;;;;;;;18.00;54.45;99858.16;4241220;28;21621;-70
2023/07/04 03:37:42;;;;;;;26.77;7.00;;;;;;;18.09;53.43;99861.50;4250584;28;20227;-71
2023/07/04 03:40:10;;;;;;;24.57;6.70;;;;;;;18.25;52.00;99857.50;4217481;28;25676;-70
2023/07/04 03:42:38;;;;;;;14.80;6.50;;;;;;;18.30;52.07;99856.84;4214377;28;20243;-71
2023/07/04 03:45:06;;;;;;;14.43;6.57;;;;;;;18.47;51.25;99851.75;4233096;28;22208;-68
2023/07/04 03:47:33;;;;;;;19.07;6.57;;;;;;;18.45;51.47;99854.72;4247485;28;20862;-70
2023/07/04 03:50:00;;;;;;;21.80;6.80;;;;;;;18.50;51.38;99854.09;4203099;28;20228;-70
2023/07/04 03:52:27;;;;;;;18.07;6.53;;;;;;;18.51;51.49;99844.81;4211683;28;21069;-68
2023/07/04 03:54:53;;;;;;;19.23;6.77;;;;;;;18.42;53.20;99851.56;4210664;28;20243;-70
2023/07/04 03:57:20;;;;;;;24.83;7.13;;;;;;;18.50;53.55;99851.34;4217689;28;20247;-70
2023/07/04 03:59:47;;;;;;;17.90;6.60;;;;;;;18.41;53.21;99858.09;4213171;28;20243;-69
2023/07/04 04:02:14;;;;;;;23.33;6.97;;;;;;;18.30;54.13;99852.25;4207676;28;22163;-72
2023/07/04 04:04:40;;;;;;;22.20;7.60;;;;;;;18.17;54.77;99846.75;4217918;28;20251;-71
2023/07/04 04:07:09;;;;;;;16.83;6.77;;;;;;;18.25;55.17;99860.22;4249565;28;20227;-69
2023/07/04 04:09:37;;;;;;;18.67;7.27;;;;;;;18.18;56.20;99843.81;4207156;28;21506;-72
2023/07/04 04:12:05;;;;;;;21.20;7.17;;;;;;;18.31;56.08;99844.84;4213686;28;20297;-72
2023/07/04 04:14:32;;;;;;;19.73;7.33;;;;;;;18.44;55.21;99853.03;4221177;28;20239;-69
2023/07/04 04:16:59;;;;;;;17.67;7.47;;;;;;;18.65;54.80;99846.47;4217771;28;20530;-72
2023/07/04 04:19:26;;;;;;;20.30;8.13;;;;;;;18.77;54.07;99841.16;4212719;28;20330;-70
2023/07/04 04:21:53;;;;;;;24.10;7.90;;;;;;;18.53;52.97;99857.25;4213436;28;20232;-70
2023/07/04 04:24:21;;;;;;;21.50;7.03;;;;;;;18.62;53.11;99857.84;4226395;28;20232;-72
2023/07/04 04:26:48;;;;;;;20.73;6.67;;;;;;;18.91;52.17;99861.16;4226888;28;21777;-71
2023/07/04 04:29:17;;;;;;;21.20;7.20;;;;;;;19.04;51.56;99859.44;4220348;28;21043;-73
2023/07/04 04:31:45;;;;;;;19.70;6.90;;;;;;;19.22;51.13;99861.47;4214284;28;20228;-71
2023/07/04 04:34:12;;;;;;;27.87;8.07;;;;;;;19.30;50.54;99862.03;4209826;28;20273;-70
2023/07/04 04:36:38;;;;;;;13.10;6.50;;;;;;;19.44;50.35;99862.81;4208717;28;21089;-72
2023/07/04 04:39:05;;;;;;;25.83;7.17;;;;;;;19.53;49.96;99865.31;4210569;28;21643;-73
2023/07/04 04:41:32;;;;;;;19.00;6.87;;;;;;;19.69;49.49;99870.28;4206611;28;20244;-70
2023/07/04 04:44:01;;;;;;;33.37;9.03;;;;;;;19.49;49.84;99878.63;4212851;28;20317;-71
2023/07/04 04:46:28;;;;;;;23.93;6.90;;;;;;;19.79;49.29;99878.84;4227455;28;20270;-70
2023/07/04 04:48:58;;;;;;;20.07;6.30;;;;;;;19.79;48.84;99878.03;4220261;28;20242;-69
2023/07/04 04:51:25;;;;;;;19.67;5.60;;;;;;;19.71;49.06;99892.03;4194485;28;20301;-70
2023/07/04 04:53:52;;;;;;;17.67;6.27;;;;;;;19.56;51.62;99886.84;4211960;28;22211;-70
2023/07/04 04:56:18;;;;;;;16.70;5.83;;;;;;;20.09;49.83;99888.41;4214750;28;20459;-70
2023/07/04 04:58:46;;;;;;;18.90;6.57;;;;;;;19.95;51.32;99890.41;4221018;28;20434;-69
2023/07/04 05:01:23;;;;;;;20.77;6.87;;;;;;;19.60;52.46;99891.66;4210824;28;20568;-69
2023/07/04 05:03:52;;;;;;;19.07;6.83;;;;;;;19.86;52.45;99898.06;4207711;28;21150;-72
2023/07/04 05:06:21;;;;;;;20.43;5.93;;;;;;;19.71;50.98;99898.38;4215399;28;22030;-70
2023/07/04 05:08:48;;;;;;;17.57;6.07;;;;;;;19.48;50.65;99899.78;4214709;28;20326;-69
2023/07/04 05:11:15;;;;;;;17.20;6.30;;;;;;;19.73;49.77;99898.97;4201575;28;20251;-70
2023/07/04 05:13:44;;;;;;;17.73;5.60;;;;;;;19.67;49.92;99910.84;4215192;28;20246;-69
2023/07/04 05:16:15;;;;;;;16.43;5.63;;;;;;;19.54;51.29;99910.91;4212760;28;21164;-73
2023/07/04 05:18:43;;;;;;;23.13;6.43;;;;;;;20.03;49.95;99906.59;4195979;28;20241;-69
2023/07/04 05:21:12;;;;;;;22.23;6.33;;;;;;;19.89;50.45;99911.38;4216469;28;21567;-69
2023/07/04 05:23:41;;;;;;;17.70;6.53;;;;;;;19.98;50.79;99913.84;4225510;28;20614;-71
2023/07/04 05:26:20;;;;;;;23.97;6.00;;;;;;;20.01;49.16;99922.50;4225035;28;20605;-73
2023/07/04 05:28:47;;;;;;;24.53;5.80;;;;;;;20.29;48.24;99914.84;4210996;28;20227;-71
2023/07/04 05:31:16;;;;;;;28.47;5.73;;;;;;;20.10;48.03;99920.31;4239989;28;21032;-72
2023/07/04 05:33:44;;;;;;;16.90;5.30;;;;;;;20.75;47.54;99919.09;4245191;28;20471;-70
2023/07/04 05:36:16;;;;;;;22.70;6.27;;;;;;;21.27;45.91;99918.75;4232003;28;20245;-70
2023/07/04 05:38:42;;;;;;;16.33;5.03;;;;;;;21.45;46.07;99925.31;4222657;28;20233;-71
2023/07/04 05:41:11;;;;;;;14.83;5.30;;;;;;;21.91;44.79;99926.56;4212119;28;20615;-70
2023/07/04 05:43:38;;;;;;;19.83;5.77;;;;;;;20.98;46.88;99928.59;4215149;28;20337;-69
2023/07/04 05:46:06;;;;;;;23.80;5.47;;;;;;;21.03;47.12;99917.78;4219695;28;20240;-69
2023/07/04 05:48:34;;;;;;;17.07;5.17;;;;;;;21.21;45.52;99931.50;4184056;28;20886;-70
2023/07/04 05:51:05;;;;;;;17.40;5.50;;;;;;;21.49;45.73;99932.03;4215142;28;20243;-70
2023/07/04 05:53:34;;;;;;;12.90;5.17;;;;;;;22.12;44.30;99924.38;4241581;28;20241;-70
2023/07/04 05:56:09;;;;;;;16.07;4.63;;;;;;;21.97;45.25;99928.41;4214136;28;21882;-71
2023/07/04 05:58:37;;;;;;;21.97;5.93;;;;;;;22.05;45.75;99932.72;4217656;28;21609;-70
2023/07/04 06:01:08;;;;;;;14.83;5.53;;;;;;;22.11;44.08;99930.94;4204091;28;25742;-70
2023/07/04 06:03:35;;;;;;;18.07;5.10;;;;;;;23.04;40.70;99934.00;4229914;28;21619;-70
2023/07/04 06:06:03;;;;;;;18.17;5.07;;;;;;;23.82;39.42;99927.31;4217885;28;20852;-69
2023/07/04 06:08:31;;;;;;;16.07;5.00;;;;;;;24.63;37.54;99927.03;4213989;28;25779;-71
2023/07/04 06:11:03;;;;;;;18.48;4.82;;;;;;;23.43;39.73;99930.69;4244303;28;20287;-71
2023/07/04 06:13:30;;;;;;;13.57;4.22;;;;;;;24.70;37.93;99921.34;4214452;28;20335;-70
2023/07/04 06:15:59;;;;;;;23.13;4.80;;;;;;;25.59;36.14;99933.31;4217168;28;21735;-71
2023/07/04 06:18:25;;;;;;;14.23;4.30;;;;;;;26.93;33.09;99936.47;4198898;28;20843;-74
2023/07/04 06:20:52;;;;;;;16.85;5.10;;;;;;;26.93;33.32;99928.13;4219613;28;20231;-71
2023/07/04 06:23:20;;;;;;;13.03;4.43;;;;;;;26.87;33.37;99932.00;4226414;28;20269;-73
2023/07/04 06:25:56;;;;;;;11.52;4.13;;;;;;;28.96;29.79;99927.38;4217547;28;20317;-71
2023/07/04 06:28:23;;;;;;;14.75;4.13;;;;;;;29.97;27.11;99927.22;4238115;28;20239;-71
2023/07/04 06:30:50;;;;;;;10.88;4.25;;;;;;;28.80;29.40;99935.78;4205265;28;20658;-67
2023/07/04 06:33:17;;;;;;;14.30;5.15;;;;;;;27.24;32.14;99933.00;4210341;28;20607;-69
2023/07/04 06:35:44;;;;;;;13.90;4.82;;;;;;;26.76;32.87;99935.78;4214546;28;20231;-68
2023/07/04 06:38:10;;;;;;;15.57;4.72;;;;;;;28.59;30.27;99930.22;4213408;28;20231;-68
2023/07/04 06:40:37;;;;;;;11.98;4.38;;;;;;;29.42;29.57;99927.25;4211432;28;20232;-66
2023/07/04 06:43:05;;;;;;;19.15;4.22;;;;;;;30.38;28.55;99936.41;4217123;28;20318;-66
2023/07/04 06:45:32;;;;;;;14.13;4.38;;;;;;;30.30;28.37;99929.47;4213016;28;20236;-71
2023/07/04 06:47:59;;;;;;;11.35;4.53;;;;;;;31.50;26.26;99943.94;4203766;28;20228;-69
2023/07/04 06:50:26;;;;;;;10.70;4.10;;;;;;;32.84;24.50;99933.44;4198361;28;20239;-70
2023/07/04 06:52:52;;;;;;;12.75;4.18;;;;;;;31.21;26.13;99940.09;4213984;28;22049;-71
2023/07/04 06:55:21;;;;;;;12.60;3.97;;;;;;;32.07;25.00;99932.75;4203125;28;21192;-68
2023/07/04 06:57:47;;;;;;;14.60;4.40;;;;;;;31.57;25.72;99936.81;4207181;28;20246;-69
2023/07/04 07:00:16;;;;;;;15.15;4.53;;;;;;;31.86;24.46;99941.47;4206706;28;21526;-70
2023/07/04 07:02:43;;;;;;;18.13;4.63;;;;;;;32.32;23.90;99937.16;4197515;28;20515;-69
2023/07/04 07:05:09;;;;;;;13.10;4.13;;;;;;;33.00;22.45;99937.63;4206000;28;20291;-71
2023/07/04 07:07:36;;;;;;;14.40;4.28;;;;;;;32.99;22.84;99938.75;4220751;28;20233;-70
2023/07/04 07:10:03;;;;;;;15.05;3.97;;;;;;;32.98;21.88;99941.84;4205988;28;21763;-70
2023/07/04 07:12:31;;;;;;;10.95;3.42;;;;;;;32.24;23.04;99943.44;4210867;28;20288;-68
2023/07/04 07:14:58;;;;;;;10.57;3.53;;;;;;;30.59;25.66;99935.13;4203893;28;20240;-71
2023/07/04 07:17:24;;;;;;;15.70;4.05;;;;;;;31.43;23.34;99930.28;4206761;28;20244;-69
2023/07/04 07:19:52;;;;;;;23.50;4.35;;;;;;;31.55;23.21;99941.06;4216744;28;21713;-70
2023/07/04 07:22:22;;;;;;;17.33;3.17;;;;;;;30.63;24.16;99936.19;4214293;28;20361;-70
2023/07/04 07:24:48;;;;;;;11.88;3.67;;;;;;;29.10;27.15;99931.25;4212312;28;20308;-70
2023/07/04 07:27:15;;;;;;;13.10;3.25;;;;;;;29.20;26.48;99934.00;4193237;28;20245;-69
2023/07/04 07:29:42;;;;;;;11.57;3.80;;;;;;;29.18;25.71;99936.22;4194834;28;20256;-68
2023/07/04 07:32:10;;;;;;;13.10;3.90;;;;;;;28.88;25.94;99928.81;4235279;28;20240;-68
2023/07/04 07:34:37;;;;;;;18.67;6.30;;;;;;;28.61;25.99;99929.94;4220488;28;21047;-72
2023/07/04 07:37:04;;;;;;;11.63;3.73;;;;;;;28.45;26.32;99932.72;4204822;28;21243;-68
2023/07/04 07:39:31;;;;;;;13.10;3.88;;;;;;;26.79;29.26;99921.38;4209936;28;20855;-72
2023/07/04 07:41:57;;;;;;;11.20;3.75;;;;;;;27.09;29.50;99931.81;4200624;28;20564;-70
2023/07/04 07:44:24;;;;;;;11.07;3.55;;;;;;;27.46;28.97;99918.94;4202230;28;20236;-68
2023/07/04 07:46:50;;;;;;;15.68;4.38;;;;;;;27.34;27.54;99919.97;4214243;28;20386;-70
2023/07/04 07:49:17;;;;;;;12.87;5.47;;;;;;;26.85;27.60;99923.09;4218165;28;20753;-70
2023/07/04 07:51:44;;;;;;;13.38;5.25;;;;;;;27.36;26.21;99916.94;4255105;28;20587;-72
2023/07/04 07:54:11;;;;;;;16.52;5.97;;;;;;;27.42;26.92;99917.84;4210884;28;20382;-68
2023/07/04 07:56:41;;;;;;;19.25;5.50;;;;;;;26.69;27.63;99916.59;4227122;28;21937;-66
2023/07/04 07:59:08;;;;;;;14.18;6.13;;;;;;;26.33;27.85;99925.47;4210846;28;22499;-68
2023/07/04 08:01:34;;;;;;;13.25;6.47;;;;;;;27.22;26.27;99913.00;4244740;28;20237;-72
2023/07/04 08:04:03;;;;;;;12.13;5.22;;;;;;;26.94;27.19;99920.63;4220701;28;21171;-70
2023/07/04 08:06:42;;;;;;;10.75;5.55;;;;;;;26.78;27.46;99905.84;4212843;28;20282;-68
2023/07/04 08:09:11;;;;;;;14.35;4.72;;;;;;;27.35;26.81;99906.94;4210187;28;21636;-69
2023/07/04 08:11:38;;;;;;;13.63;5.25;;;;;;;26.38;28.60;99911.63;4236751;28;20305;-71
2023/07/04 08:14:05;;;;;;;12.60;5.95;;;;;;;26.19;29.04;99911.19;4233607;28;20241;-70
2023/07/04 08:16:48;;;;;;;15.02;6.28;;;;;;;26.39;29.16;99906.94;4241809;28;20713;-70
2023/07/04 08:19:17;;;;;;;9.50;4.72;;;;;;;26.33;29.19;99907.97;4215070;28;20228;-73
2023/07/04 08:21:44;;;;;;;12.35;4.57;;;;;;;26.77;28.47;99909.72;4213205;28;20674;-69
2023/07/04 08:24:13;;;;;;;9.68;5.00;;;;;;;26.53;28.58;99913.69;4222236;28;20255;-69
2023/07/04 08:26:42;;;;;;;12.02;4.95;;;;;;;26.65;28.25;99916.28;4250568;28;20681;-69
2023/07/04 08:29:09;;;;;;;15.48;5.15;;;;;;;26.85;27.83;99918.34;4231676;28;25337;-68
2023/07/04 08:31:36;;;;;;;15.70;4.82;;;;;;;26.15;29.82;99912.84;4232289;28;24841;-71
2023/07/04 08:34:04;;;;;;;12.25;4.40;;;;;;;26.34;30.81;99917.97;4222842;28;20235;-70
2023/07/04 08:36:32;;;;;;;16.42;4.20;;;;;;;26.34;29.57;99912.44;4233456;28;20230;-71
2023/07/04 08:38:59;;;;;;;12.68;4.20;;;;;;;26.44;28.73;99912.53;4230428;28;20241;-68
2023/07/04 08:41:53;;;;;;;11.90;4.05;;;;;;;26.05;31.15;99915.50;4234673;28;20305;-68
2023/07/04 08:44:24;;;;;;;11.73;3.90;;;;;;;26.15;30.90;99920.31;4215939;28;21204;-67
2023/07/04 08:46:55;;;;;;;12.98;3.90;;;;;;;27.16;28.87;99907.41;4234293;28;21137;-68
2023/07/04 08:49:46;;;;;;;8.75;3.58;;;;;;;25.84;30.51;99912.53;4245069;28;20247;-74
2023/07/04 08:52:24;;;;;;;13.60;4.55;;;;;;;25.74;30.88;99907.72;4213616;28;20287;-67
2023/07/04 08:54:53;;;;;;;16.00;5.80;;;;;;;25.99;31.58;99903.50;4228793;28;20426;-72
2023/07/04 08:57:34;;;;;;;11.27;3.80;;;;;;;26.46;30.49;99902.00;4224179;28;25209;-72
2023/07/04 09:00:15;;;;;;;18.52;3.75;;;;;;;25.93;31.17;99899.88;4244305;28;20244;-72
2023/07/04 09:03:02;;;;;;;11.52;3.78;;;;;;;26.59;30.68;99889.56;4242341;28;20303;-76
2023/07/04 09:05:35;;;;;;;14.63;4.28;;;;;;;26.66;30.43;99892.94;4226812;28;20970;-69
2023/07/04 09:08:14;;;;;;;8.55;3.70;;;;;;;25.69;31.46;99892.97;4234260;28;20364;-68
2023/07/04 09:10:49;;;;;;;13.32;3.83;;;;;;;25.94;32.21;99893.19;4221689;28;21582;-78
2023/07/04 09:13:25;;;;;;;10.35;3.63;;;;;;;25.94;31.74;99897.91;4210091;28;22028;-71
2023/07/04 09:15:53;;;;;;;17.77;3.83;;;;;;;26.54;30.65;99895.94;4194077;28;21172;-72
2023/07/04 09:18:47;;;;;;;8.27;3.28;;;;;;;26.46;31.52;99899.22;4207462;28;20667;-75
2023/07/04 09:21:16;;;;;;;10.02;3.33;;;;;;;26.41;32.14;99888.06;4222583;28;20250;-71
2023/07/04 09:23:45;;;;;;;13.15;3.70;;;;;;;26.22;31.26;99882.09;4218326;28;23102;-76
2023/07/04 09:26:16;;;;;;;19.08;3.95;;;;;;;25.63;32.19;99890.16;4225088;28;20231;-72
2023/07/04 09:28:45;;;;;;;11.23;3.72;;;;;;;25.70;32.71;99883.56;4251965;28;20232;-70
2023/07/04 09:31:18;;;;;;;12.75;3.08;;;;;;;26.27;32.16;99882.16;4226223;28;20294;-75
2023/07/04 09:33:52;;;;;;;9.50;3.33;;;;;;;26.03;32.83;99876.94;4228442;28;21618;-71
2023/07/04 09:36:22;;;;;;;10.57;3.10;;;;;;;26.29;31.73;99868.00;4262742;28;20233;-74
2023/07/04 09:38:54;;;;;;;13.63;3.60;;;;;;;26.60;30.52;99874.59;4223424;28;21154;-77
2023/07/04 09:41:26;;;;;;;13.95;3.60;;;;;;;26.31;30.95;99874.97;4210067;28;20349;-77
2023/07/04 09:43:54;;;;;;;10.63;3.17;;;;;;;26.21;32.50;99878.50;4198745;28;20234;-72
2023/07/04 09:46:26;;;;;;;16.42;4.05;;;;;;;26.58;30.35;99880.41;4245985;28;22530;-72
2023/07/04 09:48:55;;;;;;;13.23;3.85;;;;;;;26.60;30.39;99880.13;4228134;28;20232;-72
2023/07/04 09:51:29;;;;;;;14.27;4.13;;;;;;;26.46;30.47;99888.13;4224847;28;20417;-71
2023/07/04 09:54:09;;;;;;;12.75;3.75;;;;;;;26.42;30.35;99887.81;4204623;28;20232;-77
2023/07/04 09:56:37;;;;;;;13.10;3.45;;;;;;;26.17;30.79;99890.38;4247994;28;20238;-72
2023/07/04 09:59:16;;;;;;;8.57;3.53;;;;;;;26.26;31.47;99883.25;4205355;28;20251;-76
2023/07/04 10:01:46;;;;;;;12.13;3.75;;;;;;;26.02;31.53;99891.06;4228181;28;22868;-76
2023/07/04 10:04:21;;;;;;;13.25;3.75;;;;;;;26.14;31.92;99872.34;4228002;28;20246;-70
2023/07/04 10:06:50;;;;;;;14.57;4.03;;;;;;;26.21;31.29;99883.22;4226331;28;20235;-76
2023/07/04 10:09:20;;;;;;;14.65;3.20;;;;;;;26.07;31.05;99883.63;4218462;28;20239;-74
2023/07/04 10:11:48;;;;;;;13.80;3.92;;;;;;;26.38;30.40;99875.56;4199320;28;22427;-74
2023/07/04 10:14:16;;;;;;;22.63;6.95;;;;;;;26.56;30.03;99888.16;4197308;28;20251;-71
2023/07/04 10:16:48;;;;;;;10.30;4.25;;;;;;;26.66;30.83;99881.00;4204922;28;20341;-72
2023/07/04 10:19:18;;;;;;;10.50;4.13;;;;;;;26.71;31.83;99881.03;4205457;28;20321;-74
2023/07/04 10:21:48;;;;;;;13.02;3.83;;;;;;;26.71;30.30;99878.25;4213619;28;20239;-75
2023/07/04 10:24:17;;;;;;;8.65;3.38;;;;;;;26.50;31.16;99874.53;4205845;28;20236;-71
2023/07/04 10:26:48;;;;;;;10.73;3.70;;;;;;;26.50;31.51;99866.22;4216805;28;20228;-78
2023/07/04 10:29:16;;;;;;;9.30;3.45;;;;;;;26.81;30.90;99864.47;4211141;28;22142;-72
2023/07/04 10:31:44;;;;;;;13.35;4.95;;;;;;;26.45;30.98;99874.50;4224872;28;20234;-71
2023/07/04 10:34:14;;;;;;;10.60;4.53;;;;;;;26.37;30.80;99861.97;4222444;28;20239;-75
2023/07/04 10:36:43;;;;;;;14.05;4.25;;;;;;;26.12;31.62;99870.94;4223250;28;21827;-73
2023/07/04 10:39:13;;;;;;;18.25;3.60;;;;;;;26.14;31.58;99861.25;4212388;28;20227;-71
2023/07/04 10:41:49;;;;;;;14.00;4.20;;;;;;;26.70;31.18;99871.88;4207637;28;20686;-71
2023/07/04 10:44:22;;;;;;;11.90;3.85;;;;;;;26.65;31.40;99871.88;4209273;28;20234;-73
2023/07/04 10:46:55;;;;;;;12.15;3.60;;;;;;;26.58;30.55;99865.72;4217786;28;22232;-70
2023/07/04 10:49:26;;;;;;;11.07;3.75;;;;;;;27.09;30.96;99867.91;4219377;28;21195;-70
2023/07/04 10:51:57;;;;;;;12.73;4.35;;;;;;;26.94;30.26;99856.75;4196916;28;20238;-72
2023/07/04 10:54:24;;;;;;;14.27;4.55;;;;;;;27.06;29.65;99871.25;4212650;28;21764;-73
2023/07/04 10:56:58;;;;;;;18.17;4.73;;;;;;;26.84;30.10;99876.97;4207326;28;24971;-73
2023/07/04 10:59:28;;;;;;;17.27;4.75;;;;;;;26.80;29.95;99871.13;4213138;28;21765;-72
2023/07/04 11:02:04;;;;;;;16.42;4.75;;;;;;;26.87;29.79;99857.84;4200593;28;21766;-73
2023/07/04 11:04:36;;;;;;;10.35;4.20;;;;;;;27.19;30.11;99865.19;4197447;28;21013;-72
2023/07/04 11:07:06;;;;;;;13.98;5.00;;;;;;;27.33;28.69;99854.41;4226071;28;20299;-72
2023/07/04 11:09:36;;;;;;;16.80;4.90;;;;;;;27.16;28.90;99856.56;4221979;28;20389;-71
2023/07/04 11:12:09;;;;;;;17.05;4.78;;;;;;;27.22;30.04;99863.00;4183634;28;25627;-75
2023/07/04 11:14:37;;;;;;;9.75;4.18;;;;;;;26.97;30.29;99865.38;4197336;28;21430;-74
2023/07/04 11:17:04;;;;;;;13.82;4.55;;;;;;;26.63;30.91;99860.19;4216184;28;20490;-69
2023/07/04 11:19:34;;;;;;;10.55;4.13;;;;;;;26.84;31.00;99851.97;4223253;28;21249;-71
2023/07/04 11:22:01;;;;;;;15.10;4.75;;;;;;;27.13;29.72;99844.06;4192688;28;20418;-74
2023/07/04 11:24:39;;;;;;;16.20;5.05;;;;;;;27.43;29.79;99850.00;4212303;28;20874;-72
2023/07/04 11:27:15;;;;;;;12.23;4.78;;;;;;;27.13;29.15;99854.31;4200324;28;20299;-72
2023/07/04 11:29:51;;;;;;;13.75;4.72;;;;;;;27.27;28.55;99841.59;4199793;28;20291;-71
2023/07/04 11:32:25;;;;;;;20.92;5.60;;;;;;;27.32;28.86;99852.75;4231528;28;20243;-71
2023/07/04 11:35:09;;;;;;;17.20;5.40;;;;;;;27.33;29.13;99859.13;4219745;28;22703;-70
2023/07/04 11:38:01;;;;;;;15.10;5.07;;;;;;;27.32;28.80;99844.41;4243004;28;21919;-74